Kirkburton, United Kingdom
Current Conditions -  °F | °C
As of 6:50 PM on Tuesday 27 Jan 2015 (Local Time) from EGNM Reporting Station
Drizzle Drizzle  
Wind Chill:   Ceiling: 1200
Heat Index:   Visibility: 6mi
Dew Point:   Wind: 17mph
Humidity: 93%   Direction: 260°W
Pressure: 30.06"   Gusts: NA
Location:  53.61°N, 1.7°W
Report Text: EGNM 271850Z 26015KT 9999 -DZ SCT007 BKN012 05/04 Q1018
Loading
Personal Weather Stations






























Interactive Weather Map New forecast layout! Learn more

10-Day Weather Forecast

Advertisements
Track Severe Weather on mobile